Conisbrough, United Kingdom
Current Conditions -  °F | °C
As of 3:50 PM on Sunday 23 Nov 2014 (Local Time) from EGCN Reporting Station
Clear Clear  
Wind Chill:   Ceiling: Unl
Heat Index:   Visibility: 6mi
Dew Point:   Wind: 9mph
Humidity: 87%   Direction: 300°WNW
Pressure: 30.06"   Gusts: NA
Location:  53.48°N, 1.23°W
Report Text: EGCN 231550Z 30008KT CAVOK 08/06 Q1018
Loading
Personal Weather Stations






























Interactive Weather Map New forecast layout! Learn more

10-Day Weather Forecast

Advertisements
Track Severe Weather on mobile